sensor_id;sensor_type;location;lat;lon;timestamp;P1;durP1;ratioP1;P2;durP2;ratioP2
8419;SDS011;4247;48.550;8.822;2023-08-20T00:00:29;5.43;;;4.77;;
8419;SDS011;4247;48.550;8.822;2023-08-20T00:02:58;6.83;;;4.60;;
8419;SDS011;4247;48.550;8.822;2023-08-20T00:05:29;5.30;;;4.80;;
8419;SDS011;4247;48.550;8.822;2023-08-20T00:07:56;6.77;;;5.23;;
8419;SDS011;4247;48.550;8.822;2023-08-20T00:10:24;8.23;;;5.50;;
8419;SDS011;4247;48.550;8.822;2023-08-20T00:12:51;8.77;;;4.97;;
8419;SDS011;4247;48.550;8.822;2023-08-20T00:15:17;6.37;;;5.07;;
8419;SDS011;4247;48.550;8.822;2023-08-20T00:17:45;6.17;;;4.93;;
8419;SDS011;4247;48.550;8.822;2023-08-20T00:20:13;6.00;;;5.37;;
8419;SDS011;4247;48.550;8.822;2023-08-20T00:22:42;5.63;;;5.10;;
8419;SDS011;4247;48.550;8.822;2023-08-20T00:25:10;6.00;;;4.80;;
8419;SDS011;4247;48.550;8.822;2023-08-20T00:27:39;7.57;;;5.63;;
8419;SDS011;4247;48.550;8.822;2023-08-20T00:30:07;5.40;;;4.90;;
8419;SDS011;4247;48.550;8.822;2023-08-20T00:32:34;7.10;;;5.70;;
8419;SDS011;4247;48.550;8.822;2023-08-20T00:35:01;8.70;;;5.20;;
8419;SDS011;4247;48.550;8.822;2023-08-20T00:37:28;6.97;;;5.13;;
8419;SDS011;4247;48.550;8.822;2023-08-20T00:39:55;11.67;;;5.70;;
8419;SDS011;4247;48.550;8.822;2023-08-20T00:42:23;9.50;;;5.53;;
8419;SDS011;4247;48.550;8.822;2023-08-20T00:44:52;6.57;;;5.83;;
8419;SDS011;4247;48.550;8.822;2023-08-20T00:47:19;7.90;;;5.13;;
8419;SDS011;4247;48.550;8.822;2023-08-20T00:49:46;5.53;;;4.53;;
8419;SDS011;4247;48.550;8.822;2023-08-20T00:52:14;8.40;;;5.20;;
8419;SDS011;4247;48.550;8.822;2023-08-20T00:54:43;7.13;;;6.33;;
8419;SDS011;4247;48.550;8.822;2023-08-20T00:57:11;7.33;;;5.90;;
8419;SDS011;4247;48.550;8.822;2023-08-20T00:59:40;8.57;;;6.40;;
8419;SDS011;4247;48.550;8.822;2023-08-20T01:02:09;7.80;;;6.47;;
8419;SDS011;4247;48.550;8.822;2023-08-20T01:04:36;6.67;;;5.57;;
8419;SDS011;4247;48.550;8.822;2023-08-20T01:07:04;10.87;;;5.77;;
8419;SDS011;4247;48.550;8.822;2023-08-20T01:09:40;8.63;;;5.17;;
8419;SDS011;4247;48.550;8.822;2023-08-20T01:12:14;7.87;;;5.37;;
8419;SDS011;4247;48.550;8.822;2023-08-20T01:14:43;5.70;;;5.20;;
8419;SDS011;4247;48.550;8.822;2023-08-20T01:17:11;8.67;;;5.70;;
8419;SDS011;4247;48.550;8.822;2023-08-20T01:19:38;6.90;;;5.67;;
8419;SDS011;4247;48.550;8.822;2023-08-20T01:22:08;6.23;;;5.73;;
8419;SDS011;4247;48.550;8.822;2023-08-20T01:25:04;9.77;;;6.43;;
8419;SDS011;4247;48.550;8.822;2023-08-20T01:27:47;6.30;;;5.60;;
8419;SDS011;4247;48.550;8.822;2023-08-20T01:30:25;10.03;;;6.10;;
8419;SDS011;4247;48.550;8.822;2023-08-20T01:32:53;6.20;;;4.87;;
8419;SDS011;4247;48.550;8.822;2023-08-20T01:35:20;5.87;;;5.33;;
8419;SDS011;4247;48.550;8.822;2023-08-20T01:37:51;6.90;;;5.07;;
8419;SDS011;4247;48.550;8.822;2023-08-20T01:40:17;10.00;;;5.80;;
8419;SDS011;4247;48.550;8.822;2023-08-20T01:42:44;9.07;;;6.07;;
8419;SDS011;4247;48.550;8.822;2023-08-20T01:45:11;6.80;;;6.10;;
8419;SDS011;4247;48.550;8.822;2023-08-20T01:47:39;6.37;;;5.63;;
8419;SDS011;4247;48.550;8.822;2023-08-20T01:50:06;8.47;;;5.40;;
8419;SDS011;4247;48.550;8.822;2023-08-20T01:52:33;6.27;;;5.63;;
8419;SDS011;4247;48.550;8.822;2023-08-20T01:55:00;7.93;;;6.33;;
8419;SDS011;4247;48.550;8.822;2023-08-20T01:57:27;6.53;;;5.80;;
8419;SDS011;4247;48.550;8.822;2023-08-20T01:59:54;8.77;;;6.07;;
8419;SDS011;4247;48.550;8.822;2023-08-20T02:02:20;7.43;;;5.93;;
8419;SDS011;4247;48.550;8.822;2023-08-20T02:04:48;17.27;;;6.27;;
8419;SDS011;4247;48.550;8.822;2023-08-20T02:07:15;6.67;;;5.90;;
8419;SDS011;4247;48.550;8.822;2023-08-20T02:09:42;9.53;;;6.30;;
8419;SDS011;4247;48.550;8.822;2023-08-20T02:12:09;6.73;;;6.07;;
8419;SDS011;4247;48.550;8.822;2023-08-20T02:14:35;6.33;;;5.30;;
8419;SDS011;4247;48.550;8.822;2023-08-20T02:17:02;7.47;;;6.50;;
8419;SDS011;4247;48.550;8.822;2023-08-20T02:19:29;10.70;;;6.60;;
8419;SDS011;4247;48.550;8.822;2023-08-20T02:21:58;8.10;;;6.63;;
8419;SDS011;4247;48.550;8.822;2023-08-20T02:24:24;8.97;;;6.00;;
8419;SDS011;4247;48.550;8.822;2023-08-20T02:26:51;9.60;;;6.53;;
8419;SDS011;4247;48.550;8.822;2023-08-20T02:29:18;9.90;;;6.33;;
8419;SDS011;4247;48.550;8.822;2023-08-20T02:31:44;8.67;;;5.87;;
8419;SDS011;4247;48.550;8.822;2023-08-20T02:34:11;7.43;;;6.73;;
8419;SDS011;4247;48.550;8.822;2023-08-20T02:36:38;8.63;;;7.13;;
8419;SDS011;4247;48.550;8.822;2023-08-20T02:39:07;9.73;;;6.63;;
8419;SDS011;4247;48.550;8.822;2023-08-20T02:41:33;7.03;;;6.33;;
8419;SDS011;4247;48.550;8.822;2023-08-20T02:44:01;7.37;;;6.67;;
8419;SDS011;4247;48.550;8.822;2023-08-20T02:46:27;10.03;;;6.57;;
8419;SDS011;4247;48.550;8.822;2023-08-20T02:48:54;8.80;;;7.03;;
8419;SDS011;4247;48.550;8.822;2023-08-20T02:51:21;10.37;;;6.50;;
8419;SDS011;4247;48.550;8.822;2023-08-20T02:53:47;8.53;;;6.60;;
8419;SDS011;4247;48.550;8.822;2023-08-20T02:56:16;9.97;;;6.83;;
8419;SDS011;4247;48.550;8.822;2023-08-20T02:58:43;9.20;;;6.50;;
8419;SDS011;4247;48.550;8.822;2023-08-20T03:01:17;8.47;;;6.50;;
8419;SDS011;4247;48.550;8.822;2023-08-20T03:03:44;7.10;;;6.40;;
8419;SDS011;4247;48.550;8.822;2023-08-20T03:06:11;7.30;;;5.93;;
8419;SDS011;4247;48.550;8.822;2023-08-20T03:08:38;13.60;;;6.97;;
8419;SDS011;4247;48.550;8.822;2023-08-20T03:11:05;9.20;;;7.37;;
8419;SDS011;4247;48.550;8.822;2023-08-20T03:13:33;9.27;;;7.43;;
8419;SDS011;4247;48.550;8.822;2023-08-20T03:15:59;6.37;;;5.77;;
8419;SDS011;4247;48.550;8.822;2023-08-20T03:18:26;9.37;;;7.37;;
8419;SDS011;4247;48.550;8.822;2023-08-20T03:20:53;11.43;;;6.07;;
8419;SDS011;4247;48.550;8.822;2023-08-20T03:23:21;9.87;;;7.10;;
8419;SDS011;4247;48.550;8.822;2023-08-20T03:25:48;8.80;;;5.73;;
8419;SDS011;4247;48.550;8.822;2023-08-20T03:28:14;9.10;;;7.27;;
8419;SDS011;4247;48.550;8.822;2023-08-20T03:30:43;9.20;;;6.73;;
8419;SDS011;4247;48.550;8.822;2023-08-20T03:33:10;9.10;;;6.90;;
8419;SDS011;4247;48.550;8.822;2023-08-20T03:35:36;9.37;;;6.70;;
8419;SDS011;4247;48.550;8.822;2023-08-20T03:38:04;9.03;;;6.43;;
8419;SDS011;4247;48.550;8.822;2023-08-20T03:40:31;7.73;;;6.23;;
8419;SDS011;4247;48.550;8.822;2023-08-20T03:42:58;9.43;;;6.40;;
8419;SDS011;4247;48.550;8.822;2023-08-20T03:45:25;9.30;;;5.80;;
8419;SDS011;4247;48.550;8.822;2023-08-20T03:47:53;6.63;;;6.03;;
8419;SDS011;4247;48.550;8.822;2023-08-20T03:50:20;10.40;;;6.30;;
8419;SDS011;4247;48.550;8.822;2023-08-20T03:52:47;7.80;;;6.20;;
8419;SDS011;4247;48.550;8.822;2023-08-20T03:55:13;8.50;;;6.13;;
8419;SDS011;4247;48.550;8.822;2023-08-20T03:57:40;8.63;;;6.13;;
8419;SDS011;4247;48.550;8.822;2023-08-20T04:00:08;14.40;;;6.33;;
8419;SDS011;4247;48.550;8.822;2023-08-20T04:02:36;8.80;;;6.70;;
8419;SDS011;4247;48.550;8.822;2023-08-20T04:05:04;11.30;;;7.13;;
8419;SDS011;4247;48.550;8.822;2023-08-20T04:07:31;15.77;;;7.33;;
8419;SDS011;4247;48.550;8.822;2023-08-20T04:09:57;9.70;;;7.33;;
8419;SDS011;4247;48.550;8.822;2023-08-20T04:12:25;11.20;;;6.57;;
8419;SDS011;4247;48.550;8.822;2023-08-20T04:14:52;13.53;;;7.13;;
8419;SDS011;4247;48.550;8.822;2023-08-20T04:17:18;8.07;;;6.53;;
8419;SDS011;4247;48.550;8.822;2023-08-20T04:19:45;10.20;;;7.00;;
8419;SDS011;4247;48.550;8.822;2023-08-20T04:22:13;8.97;;;7.17;;
8419;SDS011;4247;48.550;8.822;2023-08-20T04:24:40;6.93;;;6.23;;
8419;SDS011;4247;48.550;8.822;2023-08-20T04:27:07;8.57;;;7.07;;
8419;SDS011;4247;48.550;8.822;2023-08-20T04:29:33;8.47;;;7.57;;
8419;SDS011;4247;48.550;8.822;2023-08-20T04:32:00;9.63;;;7.13;;
8419;SDS011;4247;48.550;8.822;2023-08-20T04:34:27;10.50;;;7.43;;
8419;SDS011;4247;48.550;8.822;2023-08-20T04:36:54;8.23;;;7.43;;
8419;SDS011;4247;48.550;8.822;2023-08-20T04:39:22;10.67;;;8.03;;
8419;SDS011;4247;48.550;8.822;2023-08-20T04:41:49;9.20;;;7.57;;
8419;SDS011;4247;48.550;8.822;2023-08-20T04:44:15;10.77;;;8.80;;
8419;SDS011;4247;48.550;8.822;2023-08-20T04:46:41;13.10;;;7.50;;
8419;SDS011;4247;48.550;8.822;2023-08-20T04:49:09;7.90;;;6.63;;
8419;SDS011;4247;48.550;8.822;2023-08-20T04:51:35;9.50;;;7.40;;
8419;SDS011;4247;48.550;8.822;2023-08-20T04:54:02;8.80;;;7.90;;
8419;SDS011;4247;48.550;8.822;2023-08-20T04:56:31;7.40;;;6.70;;
8419;SDS011;4247;48.550;8.822;2023-08-20T04:58:57;10.23;;;7.37;;
8419;SDS011;4247;48.550;8.822;2023-08-20T05:01:24;8.37;;;6.47;;
8419;SDS011;4247;48.550;8.822;2023-08-20T05:03:51;10.57;;;7.20;;
8419;SDS011;4247;48.550;8.822;2023-08-20T05:06:18;12.37;;;7.33;;
8419;SDS011;4247;48.550;8.822;2023-08-20T05:08:44;7.50;;;6.80;;
8419;SDS011;4247;48.550;8.822;2023-08-20T05:11:11;7.27;;;6.47;;
8419;SDS011;4247;48.550;8.822;2023-08-20T05:13:39;7.93;;;6.90;;
8419;SDS011;4247;48.550;8.822;2023-08-20T05:16:06;13.00;;;7.70;;
8419;SDS011;4247;48.550;8.822;2023-08-20T05:18:32;8.80;;;6.87;;
8419;SDS011;4247;48.550;8.822;2023-08-20T05:20:59;10.70;;;7.17;;
8419;SDS011;4247;48.550;8.822;2023-08-20T05:23:26;8.57;;;6.80;;
8419;SDS011;4247;48.550;8.822;2023-08-20T05:25:52;7.10;;;5.87;;
8419;SDS011;4247;48.550;8.822;2023-08-20T05:28:19;7.80;;;7.00;;
8419;SDS011;4247;48.550;8.822;2023-08-20T05:30:53;8.77;;;7.87;;
8419;SDS011;4247;48.550;8.822;2023-08-20T05:33:21;9.93;;;6.83;;
8419;SDS011;4247;48.550;8.822;2023-08-20T05:35:48;9.70;;;8.17;;
8419;SDS011;4247;48.550;8.822;2023-08-20T05:38:15;8.47;;;6.97;;
8419;SDS011;4247;48.550;8.822;2023-08-20T05:40:42;10.93;;;7.47;;
8419;SDS011;4247;48.550;8.822;2023-08-20T05:43:09;7.63;;;6.60;;
8419;SDS011;4247;48.550;8.822;2023-08-20T05:45:35;12.47;;;8.20;;
8419;SDS011;4247;48.550;8.822;2023-08-20T05:48:04;9.13;;;7.67;;
8419;SDS011;4247;48.550;8.822;2023-08-20T05:50:31;8.07;;;7.27;;
8419;SDS011;4247;48.550;8.822;2023-08-20T05:52:58;11.07;;;7.60;;
8419;SDS011;4247;48.550;8.822;2023-08-20T05:55:24;18.67;;;7.13;;
8419;SDS011;4247;48.550;8.822;2023-08-20T05:57:51;7.60;;;6.80;;
8419;SDS011;4247;48.550;8.822;2023-08-20T06:00:18;8.57;;;7.67;;
8419;SDS011;4247;48.550;8.822;2023-08-20T06:02:45;10.67;;;7.27;;
8419;SDS011;4247;48.550;8.822;2023-08-20T06:05:13;7.63;;;6.33;;
8419;SDS011;4247;48.550;8.822;2023-08-20T06:07:39;10.47;;;7.13;;
8419;SDS011;4247;48.550;8.822;2023-08-20T06:10:07;6.20;;;5.70;;
8419;SDS011;4247;48.550;8.822;2023-08-20T06:12:34;6.77;;;6.27;;
8419;SDS011;4247;48.550;8.822;2023-08-20T06:15:01;7.90;;;6.20;;
8419;SDS011;4247;48.550;8.822;2023-08-20T06:17:27;12.60;;;6.73;;
8419;SDS011;4247;48.550;8.822;2023-08-20T06:19:54;7.37;;;6.00;;
8419;SDS011;4247;48.550;8.822;2023-08-20T06:22:22;7.70;;;6.90;;
8419;SDS011;4247;48.550;8.822;2023-08-20T06:24:49;7.93;;;7.00;;
8419;SDS011;4247;48.550;8.822;2023-08-20T06:27:16;8.30;;;6.30;;
8419;SDS011;4247;48.550;8.822;2023-08-20T06:29:42;10.67;;;7.17;;
8419;SDS011;4247;48.550;8.822;2023-08-20T06:32:09;10.53;;;7.13;;
8419;SDS011;4247;48.550;8.822;2023-08-20T06:34:36;7.43;;;6.33;;
8419;SDS011;4247;48.550;8.822;2023-08-20T06:37:03;8.57;;;6.03;;
8419;SDS011;4247;48.550;8.822;2023-08-20T06:39:31;9.30;;;6.53;;
8419;SDS011;4247;48.550;8.822;2023-08-20T06:41:58;6.43;;;5.90;;
8419;SDS011;4247;48.550;8.822;2023-08-20T06:44:24;11.17;;;6.63;;
8419;SDS011;4247;48.550;8.822;2023-08-20T06:46:51;11.33;;;7.07;;
8419;SDS011;4247;48.550;8.822;2023-08-20T06:49:18;8.13;;;6.83;;
8419;SDS011;4247;48.550;8.822;2023-08-20T06:51:45;7.53;;;5.93;;
8419;SDS011;4247;48.550;8.822;2023-08-20T06:54:11;8.53;;;6.30;;
8419;SDS011;4247;48.550;8.822;2023-08-20T06:56:40;8.20;;;5.57;;
8419;SDS011;4247;48.550;8.822;2023-08-20T06:59:07;6.20;;;5.43;;
8419;SDS011;4247;48.550;8.822;2023-08-20T07:01:35;7.43;;;5.63;;
8419;SDS011;4247;48.550;8.822;2023-08-20T07:04:02;6.63;;;5.57;;
8419;SDS011;4247;48.550;8.822;2023-08-20T07:06:29;11.47;;;6.53;;
8419;SDS011;4247;48.550;8.822;2023-08-20T07:08:55;11.83;;;5.77;;
8419;SDS011;4247;48.550;8.822;2023-08-20T07:11:22;6.10;;;5.50;;
8419;SDS011;4247;48.550;8.822;2023-08-20T07:13:50;6.40;;;5.60;;
8419;SDS011;4247;48.550;8.822;2023-08-20T07:16:17;8.83;;;5.63;;
8419;SDS011;4247;48.550;8.822;2023-08-20T07:18:43;5.73;;;5.23;;
8419;SDS011;4247;48.550;8.822;2023-08-20T07:21:10;9.10;;;5.73;;
8419;SDS011;4247;48.550;8.822;2023-08-20T07:23:37;5.23;;;4.77;;
8419;SDS011;4247;48.550;8.822;2023-08-20T07:26:04;8.03;;;5.73;;
8419;SDS011;4247;48.550;8.822;2023-08-20T07:28:31;8.00;;;5.43;;
8419;SDS011;4247;48.550;8.822;2023-08-20T07:31:13;8.80;;;5.90;;
8419;SDS011;4247;48.550;8.822;2023-08-20T07:33:40;7.83;;;5.17;;
8419;SDS011;4247;48.550;8.822;2023-08-20T07:36:07;7.50;;;5.30;;
8419;SDS011;4247;48.550;8.822;2023-08-20T07:38:33;7.70;;;5.13;;
8419;SDS011;4247;48.550;8.822;2023-08-20T07:41:06;6.00;;;5.40;;
8419;SDS011;4247;48.550;8.822;2023-08-20T07:43:33;6.67;;;5.63;;
8419;SDS011;4247;48.550;8.822;2023-08-20T07:46:00;7.73;;;5.30;;
8419;SDS011;4247;48.550;8.822;2023-08-20T07:48:28;7.90;;;5.03;;
8419;SDS011;4247;48.550;8.822;2023-08-20T07:50:54;7.43;;;4.93;;
8419;SDS011;4247;48.550;8.822;2023-08-20T07:53:21;6.30;;;5.13;;
8419;SDS011;4247;48.550;8.822;2023-08-20T07:55:48;5.70;;;4.77;;
8419;SDS011;4247;48.550;8.822;2023-08-20T07:58:14;12.10;;;5.23;;
8419;SDS011;4247;48.550;8.822;2023-08-20T08:00:42;5.50;;;5.00;;
8419;SDS011;4247;48.550;8.822;2023-08-20T08:03:09;5.83;;;5.33;;
8419;SDS011;4247;48.550;8.822;2023-08-20T08:05:37;8.60;;;4.90;;
8419;SDS011;4247;48.550;8.822;2023-08-20T08:08:04;8.00;;;5.27;;
8419;SDS011;4247;48.550;8.822;2023-08-20T08:10:31;7.13;;;4.87;;
8419;SDS011;4247;48.550;8.822;2023-08-20T08:12:57;7.70;;;5.23;;
8419;SDS011;4247;48.550;8.822;2023-08-20T08:15:24;5.17;;;4.73;;
8419;SDS011;4247;48.550;8.822;2023-08-20T08:17:51;7.77;;;5.20;;
8419;SDS011;4247;48.550;8.822;2023-08-20T08:20:17;8.30;;;4.80;;
8419;SDS011;4247;48.550;8.822;2023-08-20T08:22:45;7.13;;;5.17;;
8419;SDS011;4247;48.550;8.822;2023-08-20T08:25:12;7.10;;;4.77;;
8419;SDS011;4247;48.550;8.822;2023-08-20T08:27:39;7.57;;;5.53;;
8419;SDS011;4247;48.550;8.822;2023-08-20T08:30:06;6.17;;;4.20;;
8419;SDS011;4247;48.550;8.822;2023-08-20T08:32:33;5.47;;;4.30;;
8419;SDS011;4247;48.550;8.822;2023-08-20T08:35:00;6.67;;;5.07;;
8419;SDS011;4247;48.550;8.822;2023-08-20T08:37:26;7.43;;;4.83;;
8419;SDS011;4247;48.550;8.822;2023-08-20T08:39:54;13.13;;;4.33;;
8419;SDS011;4247;48.550;8.822;2023-08-20T08:42:22;6.20;;;4.07;;
8419;SDS011;4247;48.550;8.822;2023-08-20T08:44:50;5.77;;;4.27;;
8419;SDS011;4247;48.550;8.822;2023-08-20T08:47:17;6.17;;;4.57;;
8419;SDS011;4247;48.550;8.822;2023-08-20T08:49:44;4.63;;;3.83;;
8419;SDS011;4247;48.550;8.822;2023-08-20T08:52:12;8.43;;;6.03;;
8419;SDS011;4247;48.550;8.822;2023-08-20T08:54:39;6.40;;;4.87;;
8419;SDS011;4247;48.550;8.822;2023-08-20T08:57:07;4.90;;;4.30;;
8419;SDS011;4247;48.550;8.822;2023-08-20T08:59:34;4.50;;;4.20;;
8419;SDS011;4247;48.550;8.822;2023-08-20T09:02:01;4.23;;;3.63;;
8419;SDS011;4247;48.550;8.822;2023-08-20T09:04:31;3.53;;;3.27;;
8419;SDS011;4247;48.550;8.822;2023-08-20T09:06:58;8.93;;;3.93;;
8419;SDS011;4247;48.550;8.822;2023-08-20T09:09:26;4.00;;;3.67;;
8419;SDS011;4247;48.550;8.822;2023-08-20T09:11:56;4.60;;;3.03;;
8419;SDS011;4247;48.550;8.822;2023-08-20T09:14:24;4.13;;;3.60;;
8419;SDS011;4247;48.550;8.822;2023-08-20T09:16:55;3.67;;;3.20;;
8419;SDS011;4247;48.550;8.822;2023-08-20T09:19:22;4.73;;;3.07;;
8419;SDS011;4247;48.550;8.822;2023-08-20T09:21:49;8.63;;;3.47;;
8419;SDS011;4247;48.550;8.822;2023-08-20T09:24:22;3.73;;;2.87;;
8419;SDS011;4247;48.550;8.822;2023-08-20T09:26:55;5.03;;;3.40;;
8419;SDS011;4247;48.550;8.822;2023-08-20T09:29:24;7.60;;;3.63;;
8419;SDS011;4247;48.550;8.822;2023-08-20T09:31:51;3.57;;;3.27;;
8419;SDS011;4247;48.550;8.822;2023-08-20T09:34:31;6.60;;;3.20;;
8419;SDS011;4247;48.550;8.822;2023-08-20T09:37:02;4.83;;;3.37;;
8419;SDS011;4247;48.550;8.822;2023-08-20T09:39:29;5.20;;;3.50;;
8419;SDS011;4247;48.550;8.822;2023-08-20T09:41:55;5.17;;;3.30;;
8419;SDS011;4247;48.550;8.822;2023-08-20T09:44:25;5.53;;;3.93;;
8419;SDS011;4247;48.550;8.822;2023-08-20T09:46:55;3.50;;;3.20;;
8419;SDS011;4247;48.550;8.822;2023-08-20T09:49:21;3.67;;;3.37;;
8419;SDS011;4247;48.550;8.822;2023-08-20T09:51:50;4.63;;;3.50;;
8419;SDS011;4247;48.550;8.822;2023-08-20T09:54:21;5.00;;;2.83;;
8419;SDS011;4247;48.550;8.822;2023-08-20T09:56:54;5.90;;;3.63;;
8419;SDS011;4247;48.550;8.822;2023-08-20T09:59:28;4.00;;;3.50;;
8419;SDS011;4247;48.550;8.822;2023-08-20T10:01:55;4.47;;;3.63;;
8419;SDS011;4247;48.550;8.822;2023-08-20T10:04:23;4.43;;;4.07;;
8419;SDS011;4247;48.550;8.822;2023-08-20T10:06:50;5.63;;;3.57;;
8419;SDS011;4247;48.550;8.822;2023-08-20T10:09:19;6.60;;;3.57;;
8419;SDS011;4247;48.550;8.822;2023-08-20T10:11:47;4.80;;;3.53;;
8419;SDS011;4247;48.550;8.822;2023-08-20T10:14:14;4.73;;;4.00;;
8419;SDS011;4247;48.550;8.822;2023-08-20T10:16:42;4.93;;;3.90;;
8419;SDS011;4247;48.550;8.822;2023-08-20T10:19:09;5.03;;;3.90;;
8419;SDS011;4247;48.550;8.822;2023-08-20T10:21:36;7.33;;;3.57;;
8419;SDS011;4247;48.550;8.822;2023-08-20T10:24:10;4.57;;;4.13;;
8419;SDS011;4247;48.550;8.822;2023-08-20T10:26:44;3.93;;;3.43;;
8419;SDS011;4247;48.550;8.822;2023-08-20T10:32:02;4.40;;;4.00;;
8419;SDS011;4247;48.550;8.822;2023-08-20T10:34:33;6.20;;;4.20;;
8419;SDS011;4247;48.550;8.822;2023-08-20T10:37:05;9.60;;;3.40;;
8419;SDS011;4247;48.550;8.822;2023-08-20T10:39:35;12.40;;;3.00;;
8419;SDS011;4247;48.550;8.822;2023-08-20T10:42:08;6.57;;;3.90;;
8419;SDS011;4247;48.550;8.822;2023-08-20T10:47:24;3.20;;;3.00;;
8419;SDS011;4247;48.550;8.822;2023-08-20T10:49:51;3.60;;;3.30;;
8419;SDS011;4247;48.550;8.822;2023-08-20T10:52:18;4.97;;;3.30;;
8419;SDS011;4247;48.550;8.822;2023-08-20T10:54:45;4.53;;;3.33;;
8419;SDS011;4247;48.550;8.822;2023-08-20T10:57:15;3.83;;;2.53;;
8419;SDS011;4247;48.550;8.822;2023-08-20T10:59:42;3.33;;;3.00;;
8419;SDS011;4247;48.550;8.822;2023-08-20T11:02:09;5.50;;;2.97;;
8419;SDS011;4247;48.550;8.822;2023-08-20T11:04:42;6.63;;;2.87;;
8419;SDS011;4247;48.550;8.822;2023-08-20T11:07:09;5.33;;;2.50;;
8419;SDS011;4247;48.550;8.822;2023-08-20T11:09:36;4.17;;;2.80;;
8419;SDS011;4247;48.550;8.822;2023-08-20T11:12:05;9.57;;;3.20;;
8419;SDS011;4247;48.550;8.822;2023-08-20T11:14:32;4.03;;;2.90;;
8419;SDS011;4247;48.550;8.822;2023-08-20T11:17:01;4.20;;;2.50;;
8419;SDS011;4247;48.550;8.822;2023-08-20T11:19:27;7.03;;;2.93;;
8419;SDS011;4247;48.550;8.822;2023-08-20T11:21:56;2.90;;;2.67;;
8419;SDS011;4247;48.550;8.822;2023-08-20T11:24:23;4.60;;;2.40;;
8419;SDS011;4247;48.550;8.822;2023-08-20T11:26:54;4.47;;;2.57;;
8419;SDS011;4247;48.550;8.822;2023-08-20T11:29:21;2.90;;;2.47;;
8419;SDS011;4247;48.550;8.822;2023-08-20T11:31:48;4.80;;;2.77;;
8419;SDS011;4247;48.550;8.822;2023-08-20T11:34:15;3.30;;;2.80;;
8419;SDS011;4247;48.550;8.822;2023-08-20T11:36:44;4.37;;;2.83;;
8419;SDS011;4247;48.550;8.822;2023-08-20T11:39:12;3.33;;;3.03;;
8419;SDS011;4247;48.550;8.822;2023-08-20T11:41:39;3.67;;;3.37;;
8419;SDS011;4247;48.550;8.822;2023-08-20T11:44:08;4.77;;;2.60;;
8419;SDS011;4247;48.550;8.822;2023-08-20T11:46:41;3.90;;;3.03;;
8419;SDS011;4247;48.550;8.822;2023-08-20T11:49:09;3.53;;;3.00;;
8419;SDS011;4247;48.550;8.822;2023-08-20T11:51:37;4.00;;;2.50;;
8419;SDS011;4247;48.550;8.822;2023-08-20T11:54:04;4.47;;;3.17;;
8419;SDS011;4247;48.550;8.822;2023-08-20T11:56:34;2.93;;;2.63;;
8419;SDS011;4247;48.550;8.822;2023-08-20T11:59:03;3.13;;;2.83;;
8419;SDS011;4247;48.550;8.822;2023-08-20T12:01:30;7.67;;;2.73;;
8419;SDS011;4247;48.550;8.822;2023-08-20T12:03:59;15.67;;;3.33;;
8419;SDS011;4247;48.550;8.822;2023-08-20T12:06:27;2.90;;;2.70;;
8419;SDS011;4247;48.550;8.822;2023-08-20T12:08:56;5.17;;;2.47;;
8419;SDS011;4247;48.550;8.822;2023-08-20T12:11:23;5.90;;;2.53;;
8419;SDS011;4247;48.550;8.822;2023-08-20T12:13:52;8.60;;;2.70;;
8419;SDS011;4247;48.550;8.822;2023-08-20T12:16:21;5.13;;;2.93;;
8419;SDS011;4247;48.550;8.822;2023-08-20T12:18:49;5.03;;;3.23;;
8419;SDS011;4247;48.550;8.822;2023-08-20T12:21:15;9.97;;;3.00;;
8419;SDS011;4247;48.550;8.822;2023-08-20T12:23:42;3.10;;;2.57;;
8419;SDS011;4247;48.550;8.822;2023-08-20T12:26:09;3.40;;;2.90;;
8419;SDS011;4247;48.550;8.822;2023-08-20T12:28:36;10.77;;;3.07;;
8419;SDS011;4247;48.550;8.822;2023-08-20T12:31:04;5.47;;;4.23;;
8419;SDS011;4247;48.550;8.822;2023-08-20T12:33:31;2.93;;;2.63;;
8419;SDS011;4247;48.550;8.822;2023-08-20T12:35:57;6.57;;;2.67;;
8419;SDS011;4247;48.550;8.822;2023-08-20T12:38:24;3.30;;;2.43;;
8419;SDS011;4247;48.550;8.822;2023-08-20T12:40:51;4.37;;;2.80;;
8419;SDS011;4247;48.550;8.822;2023-08-20T12:43:17;4.37;;;2.70;;
8419;SDS011;4247;48.550;8.822;2023-08-20T12:45:44;6.37;;;2.60;;
8419;SDS011;4247;48.550;8.822;2023-08-20T12:48:12;4.77;;;2.70;;
8419;SDS011;4247;48.550;8.822;2023-08-20T12:50:39;5.10;;;3.27;;
8419;SDS011;4247;48.550;8.822;2023-08-20T12:53:07;6.40;;;3.93;;
8419;SDS011;4247;48.550;8.822;2023-08-20T12:55:34;3.97;;;2.67;;
8419;SDS011;4247;48.550;8.822;2023-08-20T12:58:01;3.00;;;2.80;;
8419;SDS011;4247;48.550;8.822;2023-08-20T13:00:27;4.73;;;2.60;;
8419;SDS011;4247;48.550;8.822;2023-08-20T13:02:55;2.73;;;2.50;;
8419;SDS011;4247;48.550;8.822;2023-08-20T13:05:25;4.77;;;3.10;;
8419;SDS011;4247;48.550;8.822;2023-08-20T13:07:52;4.67;;;2.47;;
8419;SDS011;4247;48.550;8.822;2023-08-20T13:10:20;4.30;;;2.23;;
8419;SDS011;4247;48.550;8.822;2023-08-20T13:12:48;4.20;;;2.40;;
8419;SDS011;4247;48.550;8.822;2023-08-20T13:15:18;5.30;;;3.00;;
8419;SDS011;4247;48.550;8.822;2023-08-20T13:17:46;3.70;;;2.63;;
8419;SDS011;4247;48.550;8.822;2023-08-20T13:20:14;2.70;;;2.50;;
8419;SDS011;4247;48.550;8.822;2023-08-20T13:22:47;3.53;;;2.30;;
8419;SDS011;4247;48.550;8.822;2023-08-20T13:25:14;8.37;;;2.37;;
8419;SDS011;4247;48.550;8.822;2023-08-20T13:27:40;6.97;;;2.80;;
8419;SDS011;4247;48.550;8.822;2023-08-20T13:30:07;2.60;;;2.40;;
8419;SDS011;4247;48.550;8.822;2023-08-20T13:32:34;4.17;;;2.63;;
8419;SDS011;4247;48.550;8.822;2023-08-20T13:35:01;4.00;;;2.50;;
8419;SDS011;4247;48.550;8.822;2023-08-20T13:37:29;2.63;;;2.43;;
8419;SDS011;4247;48.550;8.822;2023-08-20T13:39:57;4.47;;;2.30;;
8419;SDS011;4247;48.550;8.822;2023-08-20T13:42:24;4.13;;;2.47;;
8419;SDS011;4247;48.550;8.822;2023-08-20T13:44:51;3.87;;;2.70;;
8419;SDS011;4247;48.550;8.822;2023-08-20T13:47:17;7.00;;;2.60;;
8419;SDS011;4247;48.550;8.822;2023-08-20T13:49:44;5.33;;;2.33;;
8419;SDS011;4247;48.550;8.822;2023-08-20T13:52:11;2.17;;;1.97;;
8419;SDS011;4247;48.550;8.822;2023-08-20T13:54:38;4.77;;;2.47;;
8419;SDS011;4247;48.550;8.822;2023-08-20T13:57:06;11.40;;;2.50;;
8419;SDS011;4247;48.550;8.822;2023-08-20T13:59:32;5.73;;;2.70;;
8419;SDS011;4247;48.550;8.822;2023-08-20T14:01:59;6.00;;;2.33;;
8419;SDS011;4247;48.550;8.822;2023-08-20T14:04:26;9.13;;;2.93;;
8419;SDS011;4247;48.550;8.822;2023-08-20T14:06:52;3.53;;;2.97;;
8419;SDS011;4247;48.550;8.822;2023-08-20T14:09:19;6.33;;;2.80;;
8419;SDS011;4247;48.550;8.822;2023-08-20T14:11:46;5.10;;;2.50;;
8419;SDS011;4247;48.550;8.822;2023-08-20T14:14:14;5.13;;;2.83;;
8419;SDS011;4247;48.550;8.822;2023-08-20T14:16:41;5.17;;;2.50;;
8419;SDS011;4247;48.550;8.822;2023-08-20T14:19:07;5.43;;;2.37;;
8419;SDS011;4247;48.550;8.822;2023-08-20T14:21:34;3.27;;;2.27;;
8419;SDS011;4247;48.550;8.822;2023-08-20T14:24:01;3.27;;;2.33;;
8419;SDS011;4247;48.550;8.822;2023-08-20T14:26:27;7.53;;;2.00;;
8419;SDS011;4247;48.550;8.822;2023-08-20T14:28:54;3.63;;;2.70;;
8419;SDS011;4247;48.550;8.822;2023-08-20T14:31:22;3.00;;;2.50;;
8419;SDS011;4247;48.550;8.822;2023-08-20T14:33:49;2.70;;;2.47;;
8419;SDS011;4247;48.550;8.822;2023-08-20T14:36:16;10.27;;;2.70;;
8419;SDS011;4247;48.550;8.822;2023-08-20T14:38:42;4.83;;;2.47;;
8419;SDS011;4247;48.550;8.822;2023-08-20T14:41:09;6.00;;;2.85;;
8419;SDS011;4247;48.550;8.822;2023-08-20T14:43:36;2.53;;;2.33;;
8419;SDS011;4247;48.550;8.822;2023-08-20T14:46:02;3.25;;;2.67;;
8419;SDS011;4247;48.550;8.822;2023-08-20T14:48:30;4.37;;;3.43;;
8419;SDS011;4247;48.550;8.822;2023-08-20T14:50:57;4.43;;;3.07;;
8419;SDS011;4247;48.550;8.822;2023-08-20T14:53:24;3.53;;;3.00;;
8419;SDS011;4247;48.550;8.822;2023-08-20T16:16:07;3.00;;;2.80;;
8419;SDS011;4247;48.550;8.822;2023-08-20T16:18:33;3.00;;;2.80;;
8419;SDS011;4247;48.550;8.822;2023-08-20T16:21:00;4.27;;;3.53;;
8419;SDS011;4247;48.550;8.822;2023-08-20T16:23:27;4.93;;;2.93;;
8419;SDS011;4247;48.550;8.822;2023-08-20T16:25:53;4.27;;;2.93;;
8419;SDS011;4247;48.550;8.822;2023-08-20T16:28:20;6.60;;;2.83;;
8419;SDS011;4247;48.550;8.822;2023-08-20T16:30:47;2.50;;;2.37;;
8419;SDS011;4247;48.550;8.822;2023-08-20T16:33:15;6.33;;;3.23;;
8419;SDS011;4247;48.550;8.822;2023-08-20T16:35:45;5.50;;;2.90;;
8419;SDS011;4247;48.550;8.822;2023-08-20T16:38:12;2.90;;;2.60;;
8419;SDS011;4247;48.550;8.822;2023-08-20T16:40:38;9.00;;;3.73;;